Time;durP1;ratioP1;P1;durP2;ratioP2;P2;SDS_P1;SDS_P2;PMS_P1;PMS_P2;Temp;Humidity;BMP_temperature;BMP_pressure;BME280_temperature;BME280_humidity;BME280_pressure;Samples;Min_cycle;Max_cycle;Signal;HPM_P1;HPM_P2
2021/03/21 00:01:49;;;;;;;12.63;5.97;;;;;;;3.52;98.80;101840.25;5048233;28;20049;-77
2021/03/21 00:04:15;;;;;;;12.63;6.97;;;;;;;3.58;98.44;101837.38;5042907;28;20044;-74
2021/03/21 00:06:42;;;;;;;15.30;7.10;;;;;;;3.54;98.60;101833.22;5026828;28;20136;-77
2021/03/21 00:09:08;;;;;;;12.32;6.53;;;;;;;3.65;98.78;101824.94;5020365;28;20033;-76
2021/03/21 00:11:34;;;;;;;12.90;6.95;;;;;;;3.65;98.33;101819.75;5004678;28;20042;-76
2021/03/21 00:14:01;;;;;;;15.02;7.88;;;;;;;3.60;98.36;101814.81;5039952;28;20044;-77
2021/03/21 00:16:26;;;;;;;13.98;7.97;;;;;;;3.57;98.58;101809.75;5013184;28;20433;-77
2021/03/21 00:18:52;;;;;;;12.13;6.50;;;;;;;3.61;98.23;101797.47;5057339;28;20049;-77
2021/03/21 00:21:18;;;;;;;12.90;6.90;;;;;;;3.66;98.13;101798.91;5046470;28;20144;-77
2021/03/21 00:23:44;;;;;;;12.95;6.75;;;;;;;3.67;98.46;101798.03;5017634;28;20087;-77
2021/03/21 00:26:11;;;;;;;13.73;6.53;;;;;;;3.59;98.60;101796.72;5030591;28;20037;-76
2021/03/21 00:28:39;;;;;;;11.88;6.68;;;;;;;3.64;98.41;101800.75;5027356;28;20098;-75
2021/03/21 00:31:07;;;;;;;12.73;6.40;;;;;;;3.59;98.28;101799.31;5056481;28;20033;-78
2021/03/21 00:33:37;;;;;;;11.65;5.60;;;;;;;3.67;98.12;101785.03;5011882;28;20827;-78
2021/03/21 00:36:05;;;;;;;11.05;6.20;;;;;;;3.67;98.41;101791.97;5065662;28;20055;-77
2021/03/21 00:38:33;;;;;;;14.75;7.55;;;;;;;3.67;98.55;101802.34;5049608;28;20036;-77
2021/03/21 00:40:59;;;;;;;11.15;7.28;;;;;;;3.67;98.62;101781.59;5028028;28;20069;-78
2021/03/21 00:43:26;;;;;;;13.95;6.72;;;;;;;3.68;98.24;101781.53;5033586;28;20045;-78
2021/03/21 00:45:52;;;;;;;14.57;7.57;;;;;;;3.73;98.06;101776.13;5066231;28;20045;-75
2021/03/21 00:48:22;;;;;;;13.15;7.15;;;;;;;3.70;98.25;101771.91;5045039;28;20584;-79
2021/03/21 00:50:48;;;;;;;9.45;6.53;;;;;;;3.78;98.36;101757.69;5042028;28;20148;-77
2021/03/21 00:53:15;;;;;;;10.30;5.95;;;;;;;3.73;98.30;101755.34;5029187;28;20100;-74
2021/03/21 00:55:41;;;;;;;9.88;5.13;;;;;;;3.77;98.13;101745.63;5046187;28;20041;-78
2021/03/21 00:58:07;;;;;;;10.23;5.47;;;;;;;3.74;98.71;101749.22;5030958;28;20112;-76
2021/03/21 01:00:36;;;;;;;13.07;5.45;;;;;;;3.80;98.20;101750.69;5041805;28;20049;-77
2021/03/21 01:03:03;;;;;;;10.20;5.43;;;;;;;3.74;98.60;101730.25;5037790;28;20635;-78
2021/03/21 01:05:32;;;;;;;10.27;5.85;;;;;;;3.93;97.85;101717.97;5046746;28;20052;-77
2021/03/21 01:07:59;;;;;;;9.82;4.45;;;;;;;4.02;97.36;101717.50;5031755;28;20029;-76
2021/03/21 01:10:29;;;;;;;9.93;5.30;;;;;;;3.99;96.99;101706.44;5037923;28;20041;-75
2021/03/21 01:12:56;;;;;;;10.15;5.43;;;;;;;3.92;97.40;101713.72;5029809;28;20107;-77
2021/03/21 01:15:24;;;;;;;8.98;5.00;;;;;;;3.91;97.96;101709.44;5041197;28;20045;-76
2021/03/21 01:17:51;;;;;;;9.13;5.70;;;;;;;3.81;98.32;101714.28;5014777;28;20136;-77
2021/03/21 01:20:20;;;;;;;14.45;5.70;;;;;;;3.78;98.39;101713.59;5021386;28;20045;-78
2021/03/21 01:22:47;;;;;;;14.05;6.25;;;;;;;3.73;98.67;101712.97;5016003;28;20174;-79
2021/03/21 01:25:19;;;;;;;12.98;6.70;;;;;;;3.72;99.28;101706.97;5050736;28;20048;-77
2021/03/21 01:27:45;;;;;;;;;;;;;;;3.88;98.87;101715.63;5061334;28;20037;-76
2021/03/21 01:30:12;;;;;;;17.20;8.13;;;;;;;3.90;98.88;101710.38;5027626;28;19934;-77
2021/03/21 01:32:37;;;;;;;14.32;8.30;;;;;;;3.81;98.67;101705.66;5014967;28;20037;-77
2021/03/21 01:35:04;;;;;;;22.55;8.98;;;;;;;3.80;98.74;101701.38;5029773;28;20049;-79
2021/03/21 01:37:30;;;;;;;21.13;10.18;;;;;;;3.86;98.70;101696.72;5051882;28;20048;-77
2021/03/21 01:39:55;;;;;;;22.83;9.48;;;;;;;3.95;99.09;101697.16;5019568;28;20458;-76
2021/03/21 01:42:21;;;;;;;16.67;9.30;;;;;;;3.92;98.60;101682.56;5030240;28;20064;-80
2021/03/21 01:44:46;;;;;;;15.60;8.20;;;;;;;3.96;98.71;101681.50;5028961;28;20070;-77
2021/03/21 01:47:36;;;;;;;15.95;7.90;;;;;;;3.95;99.42;101674.59;5033375;28;20128;-78
2021/03/21 01:50:21;;;;;;;14.95;8.40;;;;;;;3.95;99.38;101677.19;5045775;28;20049;-76
2021/03/21 01:52:47;;;;;;;20.00;7.40;;;;;;;3.96;99.71;101670.28;5034337;28;20542;-77
2021/03/21 01:55:14;;;;;;;18.88;8.40;;;;;;;4.01;99.19;101665.66;5050585;28;20055;-76
2021/03/21 01:57:42;;;;;;;15.25;7.82;;;;;;;4.04;99.64;101657.72;5011938;28;20045;-76
2021/03/21 02:00:09;;;;;;;18.38;8.40;;;;;;;4.04;99.07;101655.13;5032683;28;20045;-80
2021/03/21 02:02:36;;;;;;;14.32;8.15;;;;;;;4.04;99.55;101661.16;5038464;28;20687;-74
2021/03/21 02:05:02;;;;;;;15.13;7.95;;;;;;;4.04;99.56;101657.72;5047177;28;20041;-77
2021/03/21 02:07:51;;;;;;;12.93;8.73;;;;;;;4.03;99.62;101645.66;5030770;28;20138;-77
2021/03/21 02:10:27;;;;;;;14.82;8.82;;;;;;;4.12;100.00;101658.13;5057593;28;20043;-78
2021/03/21 02:12:52;;;;;;;22.65;9.20;;;;;;;4.14;99.56;101642.47;5038766;28;20041;-78
2021/03/21 02:15:36;;;;;;;20.55;9.45;;;;;;;4.10;99.59;101644.41;5046169;28;20202;-78
2021/03/21 02:18:14;;;;;;;17.60;8.50;;;;;;;4.16;99.92;101643.22;5022798;28;20049;-79
2021/03/21 02:20:57;;;;;;;18.40;9.82;;;;;;;4.19;99.77;101637.88;5046011;28;20037;-79
2021/03/21 02:23:41;;;;;;;24.77;10.55;;;;;;;4.25;99.91;101637.53;5043128;28;20033;-78
2021/03/21 02:27:06;;;;;;;23.42;10.80;;;;;;;4.17;99.54;101632.78;5011432;28;20079;-79
2021/03/21 02:30:02;;;;;;;19.80;11.23;;;;;;;4.23;99.98;101634.19;5012622;28;20045;-78
2021/03/21 02:32:49;;;;;;;21.35;11.30;;;;;;;4.24;99.82;101636.72;5013934;28;20040;-77
2021/03/21 02:35:25;;;;;;;22.52;10.45;;;;;;;4.34;99.25;101626.66;5047447;28;20033;-77
2021/03/21 02:38:16;;;;;;;21.73;9.82;;;;;;;4.38;99.33;101629.91;5060870;28;20056;-76
2021/03/21 02:40:48;;;;;;;13.10;8.20;;;;;;;4.36;99.31;101616.19;5032586;28;20104;-78
2021/03/21 02:43:13;;;;;;;12.23;7.47;;;;;;;4.39;99.27;101618.59;5031150;28;20037;-79
2021/03/21 02:45:43;;;;;;;9.30;5.47;;;;;;;4.42;99.20;101621.03;5011987;28;20045;-75
2021/03/21 02:48:14;;;;;;;10.43;5.55;;;;;;;4.35;98.94;101607.56;5021174;28;20135;-77
2021/03/21 02:50:48;;;;;;;8.70;5.10;;;;;;;4.42;98.82;101613.25;5039880;28;20053;-76
2021/03/21 02:53:33;;;;;;;8.48;4.53;;;;;;;4.39;99.08;101608.19;5008178;28;20053;-77
2021/03/21 02:56:01;;;;;;;9.48;4.78;;;;;;;4.38;99.08;101586.59;5038476;28;20096;-80
2021/03/21 02:58:37;;;;;;;7.45;4.68;;;;;;;4.36;99.26;101587.59;5044145;28;20048;-81
2021/03/21 03:01:07;;;;;;;9.95;4.95;;;;;;;4.38;99.26;101583.16;5039917;28;20056;-78
2021/03/21 03:03:36;;;;;;;8.98;5.80;;;;;;;4.32;98.96;101578.31;5037544;28;20044;-81
2021/03/21 03:06:09;;;;;;;10.27;6.03;;;;;;;4.40;99.29;101555.34;5052164;28;20041;-78
2021/03/21 03:08:58;;;;;;;12.05;6.43;;;;;;;4.29;98.78;101561.13;5047590;28;20052;-80
2021/03/21 03:11:34;;;;;;;9.10;6.03;;;;;;;4.31;98.84;101564.47;5045993;28;20049;-79
2021/03/21 03:14:03;;;;;;;11.55;5.82;;;;;;;4.35;98.45;101562.53;5015634;28;20045;-78
2021/03/21 03:16:43;;;;;;;11.45;5.10;;;;;;;4.31;98.43;101569.66;5066794;28;20045;-78
2021/03/21 03:19:26;;;;;;;16.83;5.35;;;;;;;4.33;98.30;101565.22;5042211;28;20041;-77
2021/03/21 03:21:58;;;;;;;10.32;4.88;;;;;;;4.35;98.65;101550.41;5033558;28;20048;-78
2021/03/21 03:24:32;;;;;;;8.70;3.90;;;;;;;4.35;97.92;101541.75;5045009;28;20572;-78
2021/03/21 03:27:19;;;;;;;12.23;3.67;;;;;;;4.31;97.92;101535.06;5023216;28;20415;-78
2021/03/21 03:30:11;;;;;;;15.20;4.15;;;;;;;4.30;97.77;101542.03;5044073;28;20561;-79
2021/03/21 03:32:37;;;;;;;12.73;3.83;;;;;;;4.31;98.19;101529.88;5023703;28;20072;-77
2021/03/21 03:35:06;;;;;;;14.20;3.80;;;;;;;4.27;98.56;101527.44;5011617;28;20114;-78
2021/03/21 03:37:32;;;;;;;14.45;3.95;;;;;;;4.23;98.48;101538.09;5036098;28;20406;-77
2021/03/21 03:39:57;;;;;;;12.18;3.65;;;;;;;4.23;98.70;101522.53;5041508;28;20052;-78
2021/03/21 03:42:35;;;;;;;9.85;3.47;;;;;;;4.23;98.55;101523.34;5016093;28;20053;-77
2021/03/21 03:45:19;;;;;;;12.80;3.60;;;;;;;4.23;98.09;101523.34;5049774;28;21352;-78
2021/03/21 03:47:52;;;;;;;10.43;3.75;;;;;;;4.26;98.10;101515.41;5025041;28;20199;-77
2021/03/21 03:50:30;;;;;;;14.15;3.78;;;;;;;4.25;98.48;101508.53;5028619;28;20048;-79
2021/03/21 03:53:14;;;;;;;14.25;3.75;;;;;;;4.27;98.40;101493.69;5051501;28;20052;-78
2021/03/21 03:55:54;;;;;;;14.52;3.30;;;;;;;4.24;98.46;101491.28;5036488;28;20059;-77
2021/03/21 03:58:25;;;;;;;16.65;3.70;;;;;;;4.16;98.43;101500.41;5050471;28;20049;-78
2021/03/21 04:01:02;;;;;;;13.75;2.75;;;;;;;4.23;97.80;101499.16;5037023;28;20045;-78
2021/03/21 04:03:38;;;;;;;10.55;2.67;;;;;;;4.21;97.75;101488.84;5011516;28;20060;-76
2021/03/21 04:06:19;;;;;;;11.00;2.47;;;;;;;4.12;98.36;101485.94;5026794;28;20079;-75
2021/03/21 04:09:07;;;;;;;18.50;3.58;;;;;;;4.20;98.15;101484.59;5034097;28;20624;-77
2021/03/21 04:11:38;;;;;;;14.32;3.90;;;;;;;4.22;98.26;101480.16;5051676;28;20036;-78
2021/03/21 04:14:32;;;;;;;9.60;3.65;;;;;;;4.13;98.19;101469.44;5035732;28;20044;-77
2021/03/21 04:17:04;;;;;;;11.80;3.28;;;;;;;4.14;98.55;101484.91;5045578;28;20088;-75
2021/03/21 04:19:36;;;;;;;15.90;3.03;;;;;;;4.15;97.82;101472.78;5014083;28;20715;-77
2021/03/21 04:22:07;;;;;;;15.73;3.30;;;;;;;4.12;97.46;101478.16;5021263;28;20041;-77
2021/03/21 04:24:38;;;;;;;12.75;3.28;;;;;;;4.05;97.91;101475.91;5026233;28;20048;-78
2021/03/21 04:27:17;;;;;;;18.17;3.28;;;;;;;4.04;97.91;101476.81;5033113;28;20045;-77
2021/03/21 04:30:01;;;;;;;18.70;3.75;;;;;;;4.08;97.01;101470.53;5034972;28;20053;-79
2021/03/21 04:32:35;;;;;;;21.20;3.38;;;;;;;4.06;96.90;101463.75;5023743;28;20496;-76
2021/03/21 04:35:07;;;;;;;19.55;3.50;;;;;;;4.15;95.37;101465.00;5020704;28;20095;-78
2021/03/21 04:37:33;;;;;;;20.27;3.63;;;;;;;4.15;95.24;101459.81;5052282;28;20052;-78
2021/03/21 04:40:01;;;;;;;18.98;3.72;;;;;;;4.03;96.28;101462.19;5053512;28;20045;-76
2021/03/21 04:42:40;;;;;;;16.65;3.03;;;;;;;4.02;96.43;101470.03;5029213;28;20103;-78
2021/03/21 04:45:16;;;;;;;19.83;3.05;;;;;;;4.04;96.64;101469.03;5025119;28;20052;-78
2021/03/21 04:47:50;;;;;;;30.13;4.18;;;;;;;3.98;96.06;101466.78;5046668;28;20049;-78
2021/03/21 04:50:18;;;;;;;31.85;3.83;;;;;;;4.02;95.67;101465.69;5036257;28;20046;-77
2021/03/21 04:53:06;;;;;;;25.17;4.30;;;;;;;4.02;95.90;101467.44;5041757;28;20477;-76
2021/03/21 04:55:39;;;;;;;29.70;4.20;;;;;;;4.00;95.99;101472.72;5052573;28;20052;-77
2021/03/21 04:58:14;;;;;;;31.00;4.90;;;;;;;4.02;95.50;101480.44;5028443;28;20056;-76
2021/03/21 05:00:42;;;;;;;29.10;4.72;;;;;;;3.99;94.83;101484.00;5043305;28;20108;-78
2021/03/21 05:03:36;;;;;;;32.47;4.57;;;;;;;3.98;92.57;101505.72;5041837;28;20041;-79
2021/03/21 05:06:11;;;;;;;24.77;3.10;;;;;;;3.92;92.87;101510.41;5033912;28;20038;-77
2021/03/21 05:09:00;;;;;;;36.55;4.00;;;;;;;3.80;90.36;101510.16;5034805;28;20120;-77
2021/03/21 05:11:36;;;;;;;27.80;3.67;;;;;;;3.75;90.97;101511.31;5053617;28;20045;-77
2021/03/21 05:14:10;;;;;;;34.70;4.05;;;;;;;3.61;91.15;101522.47;5047786;28;20073;-78
2021/03/21 05:17:00;;;;;;;39.30;4.53;;;;;;;3.66;89.91;101520.47;5053382;28;20067;-76
2021/03/21 05:19:46;;;;;;;36.25;4.07;;;;;;;3.37;89.15;101533.22;5051571;28;20042;-81
2021/03/21 05:22:29;;;;;;;43.13;5.72;;;;;;;3.36;87.92;101507.38;5057500;28;20051;-77
2021/03/21 05:25:12;;;;;;;42.85;5.35;;;;;;;3.36;87.28;101518.56;5030560;28;20135;-78
2021/03/21 05:27:44;;;;;;;42.80;5.60;;;;;;;3.32;87.04;101532.63;5016685;28;20034;-78
2021/03/21 05:30:33;;;;;;;42.95;5.18;;;;;;;3.32;86.69;101527.44;5036179;28;20041;-78
2021/03/21 05:33:00;;;;;;;53.03;6.03;;;;;;;3.35;87.30;101519.47;5028350;28;20752;-77
2021/03/21 05:35:33;;;;;;;47.20;6.40;;;;;;;3.30;87.11;101516.31;5036838;28;20052;-77
2021/03/21 05:38:25;;;;;;;48.70;6.72;;;;;;;3.37;87.04;101517.69;5027608;28;20067;-76
2021/03/21 05:41:15;;;;;;;52.40;7.35;;;;;;;3.29;84.36;101522.41;5034252;28;20049;-78
2021/03/21 05:44:14;;;;;;;46.05;6.18;;;;;;;3.37;85.09;101520.28;5053467;28;20048;-77
2021/03/21 05:46:49;;;;;;;46.75;5.85;;;;;;;3.28;85.62;101515.56;5044039;28;20487;-79
2021/03/21 05:49:54;;;;;;;46.22;6.28;;;;;;;3.37;84.84;101528.06;5050524;28;20040;-77
2021/03/21 05:52:50;;;;;;;37.38;5.60;;;;;;;3.28;85.55;101533.72;5052086;28;20060;-78
2021/03/21 05:55:26;;;;;;;51.75;6.07;;;;;;;3.26;85.46;101541.56;5061469;28;20152;-78
2021/03/21 05:58:16;;;;;;;49.78;5.93;;;;;;;3.25;84.87;101539.88;5039822;28;20060;-77
2021/03/21 06:00:46;;;;;;;47.08;6.80;;;;;;;3.33;83.12;101549.00;5049844;28;20087;-78
2021/03/21 06:03:49;;;;;;;47.53;6.03;;;;;;;3.34;84.32;101551.53;5035166;28;20052;-76
2021/03/21 06:06:54;;;;;;;54.95;6.00;;;;;;;3.39;82.77;101539.19;5049069;28;20045;-79
2021/03/21 06:09:53;;;;;;;56.70;6.72;;;;;;;3.45;82.81;101546.63;5037413;28;20053;-79
2021/03/21 06:12:49;;;;;;;42.30;5.18;;;;;;;3.47;82.56;101552.56;5045370;28;20052;-78
2021/03/21 06:15:35;;;;;;;46.60;6.30;;;;;;;3.47;81.89;101556.94;5047946;28;20053;-75
2021/03/21 06:18:19;;;;;;;50.83;6.22;;;;;;;3.54;82.32;101565.22;5048526;28;20110;-77
2021/03/21 06:21:27;;;;;;;40.40;6.38;;;;;;;3.59;83.17;101558.84;5032739;28;20136;-78
2021/03/21 06:24:18;;;;;;;49.70;7.25;;;;;;;3.57;83.43;101562.47;5064167;28;20053;-77
2021/03/21 06:27:03;;;;;;;55.70;7.45;;;;;;;3.59;84.90;101568.41;5068780;28;20041;-81
2021/03/21 06:29:32;;;;;;;51.92;6.53;;;;;;;3.64;84.61;101561.22;5017885;28;20057;-77
2021/03/21 06:32:32;;;;;;;56.58;5.93;;;;;;;3.76;85.72;101565.75;5018043;28;20339;-78
2021/03/21 06:35:16;;;;;;;55.28;7.18;;;;;;;3.89;85.33;101555.53;5025580;28;20053;-75
2021/03/21 06:37:57;;;;;;;60.33;7.05;;;;;;;3.79;84.75;101568.19;5032264;28;20112;-80
2021/03/21 06:40:47;;;;;;;41.40;6.03;;;;;;;3.89;85.53;101563.31;5048169;28;20040;-77
2021/03/21 06:43:43;;;;;;;60.25;7.03;;;;;;;3.85;84.23;101574.81;5040058;28;20050;-80
2021/03/21 06:46:15;;;;;;;62.13;7.20;;;;;;;3.95;84.46;101575.13;5022869;28;20436;-78
2021/03/21 06:48:57;;;;;;;45.72;6.82;;;;;;;3.88;83.58;101577.22;5017572;28;20045;-79
2021/03/21 06:51:35;;;;;;;62.30;7.25;;;;;;;3.99;83.63;101580.06;5048439;28;20041;-78
2021/03/21 06:54:25;;;;;;;57.15;6.95;;;;;;;3.96;83.77;101575.06;5052892;28;20056;-79
2021/03/21 06:57:22;;;;;;;50.47;7.20;;;;;;;4.05;84.43;101569.38;5052213;28;20040;-77
2021/03/21 07:00:12;;;;;;;60.70;6.88;;;;;;;4.10;82.45;101582.09;5050272;28;20048;-78
2021/03/21 07:03:17;;;;;;;60.65;7.40;;;;;;;4.16;82.26;101589.53;5016449;28;20522;-78
2021/03/21 07:06:20;;;;;;;62.75;8.07;;;;;;;4.23;84.21;101587.44;5041258;28;20056;-79
2021/03/21 07:09:07;;;;;;;55.78;7.68;;;;;;;4.33;82.32;101582.56;5049841;28;20056;-78
2021/03/21 07:12:02;;;;;;;52.25;8.00;;;;;;;4.32;82.84;101576.56;5041552;28;20036;-78
2021/03/21 07:14:46;;;;;;;56.17;8.05;;;;;;;4.39;83.01;101590.88;5033647;28;20256;-77
2021/03/21 07:17:27;;;;;;;64.60;7.50;;;;;;;4.48;83.14;101589.50;5032354;28;20060;-79
2021/03/21 07:20:31;;;;;;;59.70;7.80;;;;;;;4.55;82.79;101593.44;5060668;28;20095;-78
2021/03/21 07:23:27;;;;;;;63.30;7.63;;;;;;;4.73;82.24;101606.31;5061801;28;20075;-79
2021/03/21 07:26:17;;;;;;;56.85;7.38;;;;;;;4.76;82.39;101599.16;5033168;28;20040;-78
2021/03/21 07:29:00;;;;;;;63.63;8.73;;;;;;;4.88;80.56;101600.25;5064031;28;20060;-79
2021/03/21 07:32:00;;;;;;;65.95;8.60;;;;;;;5.01;81.09;101590.81;5059478;28;20509;-78
2021/03/21 07:34:38;;;;;;;68.80;8.25;;;;;;;4.96;80.66;101597.22;5035668;28;20071;-80
2021/03/21 07:37:25;;;;;;;66.63;8.20;;;;;;;5.01;80.07;101606.41;5026895;28;20041;-78
2021/03/21 07:40:14;;;;;;;55.53;8.52;;;;;;;5.04;79.32;101595.00;5056357;28;20082;-78
2021/03/21 07:43:11;;;;;;;56.13;8.10;;;;;;;5.09;79.00;101592.97;5046440;28;20041;-77
2021/03/21 07:45:43;;;;;;;58.65;8.02;;;;;;;5.16;79.31;101602.09;5018239;28;20112;-79
2021/03/21 07:48:15;;;;;;;55.47;7.32;;;;;;;5.19;77.14;101588.06;5022448;28;20504;-78
2021/03/21 07:51:07;;;;;;;58.05;8.30;;;;;;;5.48;80.09;101588.91;5044686;28;20049;-76
2021/03/21 07:53:59;;;;;;;51.70;7.93;;;;;;;5.55;79.53;101587.59;5051894;28;20056;-78
2021/03/21 07:56:32;;;;;;;64.70;8.68;;;;;;;5.51;77.28;101588.72;5054832;28;20041;-77
2021/03/21 07:59:09;;;;;;;71.75;8.32;;;;;;;5.39;75.70;101586.88;5039963;28;20041;-81
2021/03/21 08:01:34;;;;;;;59.65;9.07;;;;;;;5.21;77.27;101599.19;5053628;28;20037;-78
2021/03/21 08:04:01;;;;;;;62.47;9.38;;;;;;;5.31;76.81;101589.91;5055072;28;20041;-77
2021/03/21 08:06:32;;;;;;;70.50;8.40;;;;;;;5.32;77.81;101578.59;5054289;28;20049;-77
2021/03/21 08:09:13;;;;;;;54.55;8.00;;;;;;;5.35;77.06;101586.22;5050738;28;22217;-78
2021/03/21 08:11:46;;;;;;;52.35;7.78;;;;;;;5.49;77.73;101600.16;5014253;28;20072;-78
2021/03/21 08:14:16;;;;;;;61.50;7.85;;;;;;;5.65;74.99;101595.69;5015472;28;20048;-77
2021/03/21 08:16:46;;;;;;;53.63;7.30;;;;;;;5.71;75.92;101605.75;5033486;28;20076;-76
2021/03/21 08:19:20;;;;;;;55.42;7.20;;;;;;;5.81;75.15;101608.59;5049024;28;20367;-76
2021/03/21 08:21:45;;;;;;;51.65;7.18;;;;;;;5.96;74.17;101602.47;5032836;28;20132;-78
2021/03/21 08:24:20;;;;;;;55.85;7.60;;;;;;;5.96;74.04;101620.72;5025740;28;20048;-75
2021/03/21 08:26:47;;;;;;;61.55;7.68;;;;;;;5.86;72.18;101616.97;5063413;28;20055;-79
2021/03/21 08:29:26;;;;;;;44.05;7.20;;;;;;;5.89;75.03;101621.97;5035224;28;20098;-78
2021/03/21 08:32:14;;;;;;;53.00;7.70;;;;;;;5.88;73.78;101609.06;5069493;28;20045;-79
2021/03/21 08:34:47;;;;;;;56.35;7.72;;;;;;;5.93;72.21;101613.03;5055750;28;20052;-78
2021/03/21 08:37:18;;;;;;;50.20;7.05;;;;;;;6.21;73.25;101616.56;5029664;28;20049;-77
2021/03/21 08:39:47;;;;;;;58.72;7.88;;;;;;;6.31;72.95;101629.84;5069288;28;20076;-78
2021/03/21 08:42:27;;;;;;;46.25;7.53;;;;;;;6.38;72.09;101631.13;5049418;28;20143;-77
2021/03/21 08:45:05;;;;;;;49.65;7.32;;;;;;;6.21;70.61;101630.41;5048084;28;20082;-76
2021/03/21 08:47:31;;;;;;;46.33;5.97;;;;;;;6.24;73.01;101629.41;5055021;28;20048;-76
2021/03/21 08:49:59;;;;;;;52.40;7.13;;;;;;;6.23;72.02;101623.38;5044267;28;20034;-77
2021/03/21 08:52:29;;;;;;;46.25;6.63;;;;;;;6.20;70.70;101643.56;5017433;28;20474;-75
2021/03/21 08:54:55;;;;;;;45.92;7.25;;;;;;;6.37;71.37;101635.53;5053219;28;20136;-77
2021/03/21 08:57:33;;;;;;;49.17;7.20;;;;;;;6.47;70.19;101642.75;5051956;28;20171;-79
2021/03/21 09:00:18;;;;;;;45.72;7.55;;;;;;;6.50;69.38;101639.94;5066355;28;20056;-77
2021/03/21 09:02:44;;;;;;;46.05;7.07;;;;;;;6.48;70.78;101641.81;5018008;28;20049;-77
2021/03/21 09:05:13;;;;;;;45.00;7.18;;;;;;;6.43;71.27;101653.38;5037711;28;20048;-78
2021/03/21 09:08:01;;;;;;;43.50;7.00;;;;;;;6.31;70.92;101659.38;5015005;28;20049;-78
2021/03/21 09:10:34;;;;;;;41.20;6.00;;;;;;;6.29;69.24;101658.63;5037263;28;20041;-77
2021/03/21 09:13:17;;;;;;;43.67;6.40;;;;;;;6.36;70.39;101659.88;5044235;28;20029;-77
2021/03/21 09:15:43;;;;;;;;;;;;;;;6.57;69.98;101659.47;5028023;28;20049;-77
2021/03/21 09:18:19;;;;;;;45.38;6.70;;;;;;;6.60;69.94;101657.50;5053921;28;19928;-77
2021/03/21 09:20:52;;;;;;;40.78;5.70;;;;;;;6.56;68.58;101663.84;5049887;28;21285;-75
2021/03/21 09:23:26;;;;;;;40.03;6.25;;;;;;;6.55;69.00;101669.16;5023433;28;20033;-78
2021/03/21 09:25:55;;;;;;;52.08;6.35;;;;;;;6.48;67.26;101660.06;5017228;28;20076;-76
2021/03/21 09:28:22;;;;;;;40.13;6.38;;;;;;;6.36;70.39;101670.31;5036422;28;20845;-78
2021/03/21 09:30:48;;;;;;;46.80;7.22;;;;;;;6.48;69.54;101671.34;5040479;28;20042;-76
2021/03/21 09:33:29;;;;;;;45.53;5.95;;;;;;;6.49;67.78;101678.19;5036770;28;20043;-77
2021/03/21 09:36:11;;;;;;;42.65;5.80;;;;;;;6.72;68.99;101684.56;5051587;28;20047;-78
2021/03/21 09:38:45;;;;;;;30.03;5.63;;;;;;;6.94;68.18;101697.06;5037002;28;20446;-78
2021/03/21 09:41:12;;;;;;;36.60;5.35;;;;;;;6.87;66.84;101702.75;5026433;28;20033;-78
2021/03/21 09:43:40;;;;;;;33.78;5.75;;;;;;;6.84;66.39;101701.19;5027611;28;20041;-78
2021/03/21 09:46:05;;;;;;;33.35;5.90;;;;;;;6.89;67.52;101711.31;5031294;28;20132;-77
2021/03/21 09:48:47;;;;;;;34.28;6.22;;;;;;;7.18;68.34;101705.06;5050981;28;20128;-77
2021/03/21 09:51:22;;;;;;;38.00;5.68;;;;;;;7.24;67.36;101710.81;5052933;28;20501;-76
2021/03/21 09:54:12;;;;;;;40.88;6.35;;;;;;;7.29;67.96;101698.28;5027133;28;20049;-76
2021/03/21 09:56:55;;;;;;;35.50;5.03;;;;;;;7.29;68.60;101696.53;5014143;28;20136;-76
2021/03/21 09:59:37;;;;;;;29.67;5.53;;;;;;;7.51;68.02;101695.91;5025565;28;20054;-77
2021/03/21 10:02:26;;;;;;;37.80;5.43;;;;;;;7.53;66.95;101691.41;5044877;28;20057;-79
2021/03/21 10:05:01;;;;;;;34.15;6.25;;;;;;;7.53;64.88;101698.41;5028603;28;20506;-77
2021/03/21 10:07:39;;;;;;;30.98;5.30;;;;;;;7.34;64.64;101694.44;5051182;28;20511;-78
2021/03/21 10:10:08;;;;;;;32.50;5.20;;;;;;;7.22;63.82;101697.88;5056489;28;20127;-79
2021/03/21 10:12:40;;;;;;;33.83;5.05;;;;;;;7.51;65.77;101703.75;5050289;28;20071;-76
2021/03/21 10:15:13;;;;;;;26.98;4.53;;;;;;;7.47;66.02;101704.88;5024911;28;20045;-78
2021/03/21 10:17:40;;;;;;;29.00;5.07;;;;;;;7.53;64.69;101707.09;5052154;28;20124;-79
2021/03/21 10:20:06;;;;;;;36.22;5.70;;;;;;;7.75;65.95;101708.25;5023142;28;20098;-78
2021/03/21 10:22:33;;;;;;;31.58;6.18;;;;;;;7.40;63.40;101720.16;5015529;28;20045;-77
2021/03/21 10:25:08;;;;;;;28.92;5.05;;;;;;;7.57;63.77;101715.53;5059447;28;20190;-77
2021/03/21 10:27:42;;;;;;;31.98;5.25;;;;;;;7.54;63.75;101721.81;5016884;28;20044;-75
2021/03/21 10:30:24;;;;;;;29.80;4.45;;;;;;;7.54;63.62;101724.44;5027637;28;20065;-77
2021/03/21 10:32:58;;;;;;;24.73;4.78;;;;;;;7.70;62.52;101723.41;5043717;28;20128;-78
2021/03/21 10:35:24;;;;;;;24.02;4.72;;;;;;;7.58;62.75;101735.50;5049988;28;20044;-77
2021/03/21 10:38:02;;;;;;;32.40;4.35;;;;;;;7.65;62.44;101722.84;5013293;28;20416;-76
2021/03/21 10:40:30;;;;;;;26.88;4.43;;;;;;;7.90;63.77;101735.13;5010224;28;20119;-78
2021/03/21 10:42:58;;;;;;;31.95;4.85;;;;;;;7.92;61.61;101733.22;5002768;28;20056;-77
2021/03/21 10:45:35;;;;;;;22.33;4.07;;;;;;;8.10;63.10;101741.56;5053642;28;20049;-77
2021/03/21 10:48:08;;;;;;;24.95;3.90;;;;;;;7.88;60.54;101744.84;5044962;28;20236;-74
2021/03/21 10:50:33;;;;;;;25.00;4.05;;;;;;;7.96;62.09;101747.75;5049274;28;20053;-76
2021/03/21 10:53:20;;;;;;;26.58;4.15;;;;;;;7.68;62.17;101754.00;5054041;28;20054;-76
2021/03/21 10:56:13;;;;;;;24.73;4.15;;;;;;;7.92;61.59;101752.34;5055479;28;20075;-77
2021/03/21 10:58:53;;;;;;;23.30;4.20;;;;;;;7.93;60.49;101740.97;5030384;28;20056;-78
2021/03/21 11:01:18;;;;;;;24.50;3.97;;;;;;;8.01;61.73;101745.66;5029086;28;20860;-78
2021/03/21 11:03:49;;;;;;;25.90;3.92;;;;;;;8.01;62.39;101752.69;5033561;28;20049;-76
2021/03/21 11:06:19;;;;;;;19.05;4.32;;;;;;;8.34;60.99;101757.31;5062103;28;20051;-77
2021/03/21 11:08:46;;;;;;;23.17;4.45;;;;;;;8.43;58.71;101751.50;5042811;28;20044;-77
2021/03/21 11:11:33;;;;;;;21.13;3.53;;;;;;;8.37;60.02;101747.50;5032726;28;20110;-78
2021/03/21 11:14:25;;;;;;;23.40;3.67;;;;;;;8.19;58.60;101749.63;5040221;28;20048;-76
2021/03/21 11:17:02;;;;;;;35.78;3.95;;;;;;;8.27;62.77;101754.31;5047402;28;20053;-77
2021/03/21 11:19:32;;;;;;;27.08;4.28;;;;;;;8.28;59.76;101757.75;5032361;28;20052;-78
2021/03/21 11:21:58;;;;;;;23.77;3.80;;;;;;;8.13;58.66;101752.66;5033721;28;20502;-78
2021/03/21 11:24:35;;;;;;;21.90;3.72;;;;;;;8.14;58.90;101749.09;5018665;28;20569;-76
2021/03/21 11:27:03;;;;;;;25.27;3.80;;;;;;;8.48;60.91;101757.25;5047846;28;20052;-77
2021/03/21 11:29:33;;;;;;;23.10;4.13;;;;;;;8.49;59.24;101752.84;5041770;28;20526;-74
2021/03/21 11:32:13;;;;;;;25.33;3.72;;;;;;;8.63;58.18;101752.72;5046595;28;20375;-79
2021/03/21 11:34:40;;;;;;;26.00;3.90;;;;;;;8.70;59.17;101745.25;5055522;28;20155;-78
2021/03/21 11:37:09;;;;;;;17.45;3.65;;;;;;;8.87;56.96;101751.88;5043275;28;20124;-77
2021/03/21 11:39:53;;;;;;;28.50;4.05;;;;;;;8.89;57.29;101747.38;5046815;28;20136;-79
2021/03/21 11:42:29;;;;;;;22.13;3.80;;;;;;;9.23;56.49;101751.00;5048956;28;20059;-77
2021/03/21 11:45:26;;;;;;;18.85;3.60;;;;;;;9.28;55.86;101748.03;5033967;28;20039;-77
2021/03/21 11:48:10;;;;;;;19.90;3.13;;;;;;;9.21;54.08;101752.91;5053270;28;20057;-75
2021/03/21 11:50:42;;;;;;;18.45;3.35;;;;;;;9.29;54.91;101755.78;5068101;28;20052;-78
2021/03/21 11:53:15;;;;;;;26.20;4.25;;;;;;;9.61;56.17;101749.09;5030063;28;20029;-77
2021/03/21 11:55:42;;;;;;;22.02;3.28;;;;;;;10.06;55.92;101752.63;5039037;28;20068;-77
2021/03/21 11:58:13;;;;;;;21.88;3.78;;;;;;;9.56;51.80;101746.81;5036953;28;20128;-78
2021/03/21 12:00:42;;;;;;;22.20;3.65;;;;;;;9.53;53.71;101752.25;5056213;28;20052;-79
2021/03/21 12:03:18;;;;;;;15.52;3.28;;;;;;;9.68;53.17;101747.66;5024419;28;20041;-77
2021/03/21 12:05:56;;;;;;;17.17;3.33;;;;;;;9.89;53.99;101750.47;5006279;28;20360;-78
2021/03/21 12:08:25;;;;;;;17.45;3.15;;;;;;;9.94;51.70;101741.28;5030368;28;20036;-77
2021/03/21 12:10:53;;;;;;;16.88;2.90;;;;;;;9.91;50.24;101741.53;5024290;28;20857;-77